createdAt,value
2023-05-01T00:00:04.745Z,36.4080619754269
2023-05-01T00:15:02.159Z,36.34643856689337
2023-05-01T00:30:01.873Z,36.301550687974355
2023-05-01T00:45:01.600Z,36.47364162122847
2023-05-01T01:00:02.318Z,36.57794142941089
2023-05-01T01:15:02.057Z,36.61906229449613
2023-05-01T01:30:01.846Z,36.386779728385605
2023-05-01T01:45:01.579Z,36.20534346160208
2023-05-01T02:00:02.274Z,36.2909151246565
2023-05-01T02:15:02.081Z,36.34222048018409
2023-05-01T02:30:01.856Z,36.456181761657945
2023-05-01T02:45:01.576Z,36.43398777254147
2023-05-01T03:00:02.284Z,36.406266022588454
2023-05-01T03:15:01.942Z,36.33338707215506
2023-05-01T03:30:01.934Z,36.54840020502354
2023-05-01T03:45:01.640Z,36.03789353483459
2023-05-01T04:00:02.295Z,35.890521647733365
2023-05-01T04:15:01.993Z,35.77157921916995
2023-05-01T04:30:01.967Z,35.09910545707089
2023-05-01T04:45:01.752Z,34.114876755603575
2023-05-01T05:00:01.472Z,33.193549746000876
2023-05-01T05:15:02.181Z,32.68103585706426
2023-05-01T05:30:01.861Z,32.02787624305138
2023-05-01T05:45:01.606Z,29.78098529989116
2023-05-01T06:00:01.339Z,28.73667292520699
2023-05-01T06:15:02.071Z,27.162912768802062
2023-05-01T06:30:01.822Z,26.58287539049254
2023-05-01T06:45:01.531Z,24.77641158345925
2023-05-01T07:00:02.198Z,24.37088102423611
2023-05-01T07:15:02.260Z,22.840795271891572
2023-05-01T07:30:02.003Z,22.36103645203578
2023-05-01T07:45:01.765Z,21.715536226884236
2023-05-01T08:00:01.723Z,22.288715988082814
2023-05-01T08:15:02.433Z,18.37208243712279
2023-05-01T08:30:02.149Z,18.570645942945486
2023-05-01T08:45:01.756Z,18.5183190542804
2023-05-01T09:00:02.373Z,15.154863640557867
2023-05-01T09:15:01.993Z,16.718109287630146
2023-05-01T09:30:01.642Z,13.81827031052811
2023-05-01T09:45:02.250Z,15.420685292142439
2023-05-01T10:00:01.844Z,15.072390152848289
2023-05-01T10:15:07.900Z,12.937725451849882
2023-05-01T10:30:01.586Z,13.5487907575038
2023-05-01T10:45:02.217Z,14.993240444600799
2023-05-01T11:00:01.869Z,15.91088161264621
2023-05-01T11:15:01.583Z,15.818587760710894
2023-05-01T11:30:02.217Z,15.437149325254653
2023-05-01T11:45:01.826Z,15.65250435116662
2023-05-01T12:00:01.426Z,15.189550428064369
2023-05-01T12:15:02.063Z,17.582114527128358
2023-05-01T12:30:01.708Z,14.320064373127922
2023-05-01T12:45:02.311Z,15.321506832156787
2023-05-01T13:00:01.967Z,16.055297947589146
2023-05-01T13:15:01.594Z,17.037130688121543
2023-05-01T13:30:02.608Z,15.360032505486966
2023-05-01T13:45:01.363Z,18.91111004770435
2023-05-01T14:00:01.968Z,16.75484281717172
2023-05-01T14:15:02.143Z,20.96393419596229
2023-05-01T14:30:02.116Z,22.441507169678673
2023-05-01T14:45:01.754Z,23.92762807012153
2023-05-01T15:00:01.615Z,23.270611456787904
2023-05-01T15:15:01.387Z,23.474076520761436
2023-05-01T15:30:02.066Z,23.973407865734142
2023-05-01T15:45:01.694Z,25.64493188298705
2023-05-01T16:00:01.748Z,25.63109997610371
2023-05-01T16:15:01.672Z,24.762794780140155
2023-05-01T16:30:01.611Z,26.129552110556045
2023-05-01T16:45:01.352Z,27.606777421410317
2023-05-01T17:00:02.484Z,27.028407710410217
2023-05-01T17:15:01.340Z,27.005117084955888
2023-05-01T17:30:02.461Z,29.631363887737614
2023-05-01T17:45:01.452Z,30.563704937592316
2023-05-01T18:00:02.545Z,30.24844362568104
2023-05-01T18:15:01.507Z,30.739911491631712
2023-05-01T18:30:02.431Z,32.22962887759366
2023-05-01T18:45:01.140Z,31.81067702855867
2023-05-01T19:00:01.993Z,32.5454884371923
2023-05-01T19:15:01.802Z,32.67753615025054
2023-05-01T19:30:01.821Z,32.79061477542223
2023-05-01T19:45:01.755Z,32.58150045978526
2023-05-01T20:00:01.669Z,32.194998746300584
2023-05-01T20:15:01.625Z,31.97592978239047
2023-05-01T20:30:01.618Z,31.857427809307474
2023-05-01T20:45:01.745Z,32.4697940941023
2023-05-01T21:00:01.827Z,32.3384738117652
2023-05-01T21:15:01.756Z,31.96451243320812
2023-05-01T21:30:02.008Z,32.24239162226342
2023-05-01T21:45:01.199Z,31.827909546916253
2023-05-01T22:00:02.217Z,32.29889989388814
2023-05-01T22:15:02.109Z,32.30681311208058
2023-05-01T22:30:02.201Z,32.21518960251981
2023-05-01T22:45:01.254Z,32.33833964467446
2023-05-01T23:00:02.355Z,32.34541987120911
2023-05-01T23:15:01.744Z,32.29890488916442
2023-05-01T23:30:01.814Z,32.56190449729907
2023-05-01T23:45:01.742Z,33.58287876598074
